Time;durP1;ratioP1;P1;durP2;ratioP2;P2;SDS_P1;SDS_P2;PMS_P1;PMS_P2;Temp;Humidity;BMP_temperature;BMP_pressure;BME280_temperature;BME280_humidity;BME280_pressure;Samples;Min_cycle;Max_cycle;Signal;HPM_P1;HPM_P2
2022/08/20 00:01:13;;;;;;;3.55;1.08;;;26.40;58.40;;;;;;5028792;28;20107;-64
2022/08/20 00:03:41;;;;;;;2.70;1.40;;;26.40;58.40;;;;;;5027304;28;20487;-63
2022/08/20 00:06:21;;;;;;;2.00;1.27;;;26.30;58.40;;;;;;5028626;28;20398;-64
2022/08/20 00:08:49;;;;;;;2.45;1.25;;;26.30;58.40;;;;;;5026810;28;20046;-64
2022/08/20 00:11:20;;;;;;;2.58;1.10;;;26.30;58.40;;;;;;5027198;28;20049;-64
2022/08/20 00:13:52;;;;;;;4.55;1.35;;;26.30;58.40;;;;;;5026606;28;20441;-64
2022/08/20 00:16:22;;;;;;;1.92;1.33;;;26.30;58.40;;;;;;5027041;28;20052;-64
2022/08/20 00:18:49;;;;;;;6.57;1.98;;;26.30;58.40;;;;;;5027336;28;20511;-64
2022/08/20 00:21:19;;;;;;;1.95;1.00;;;26.30;58.40;;;;;;5010436;28;20045;-64
2022/08/20 00:23:49;;;;;;;5.25;1.50;;;26.30;58.40;;;;;;5026848;28;20522;-64
2022/08/20 00:26:17;;;;;;;3.42;1.40;;;26.30;58.40;;;;;;5022577;28;20050;-64
2022/08/20 00:28:45;;;;;;;6.43;1.63;;;26.30;58.40;;;;;;5028215;28;20072;-64
2022/08/20 00:31:16;;;;;;;2.88;1.80;;;26.30;58.40;;;;;;5026350;28;20060;-64
2022/08/20 00:33:45;;;;;;;5.00;1.70;;;26.30;58.40;;;;;;5026599;28;20045;-63
2022/08/20 00:36:14;;;;;;;3.75;1.70;;;26.30;58.50;;;;;;5028284;28;20361;-64
2022/08/20 00:38:44;;;;;;;4.13;1.23;;;26.20;58.40;;;;;;5026820;28;20112;-63
2022/08/20 00:41:17;;;;;;;4.68;1.67;;;26.30;58.50;;;;;;5027951;28;20442;-64
2022/08/20 00:43:50;;;;;;;2.08;1.33;;;26.30;58.40;;;;;;5026043;28;20048;-64
2022/08/20 00:46:24;;;;;;;2.25;1.85;;;26.20;58.40;;;;;;5027616;28;20049;-64
2022/08/20 00:48:59;;;;;;;4.25;1.42;;;26.20;58.40;;;;;;5026752;28;20050;-64
2022/08/20 00:51:42;;;;;;;5.65;1.42;;;26.20;58.40;;;;;;5027981;28;20125;-63
2022/08/20 00:54:28;;;;;;;4.95;1.90;;;26.20;58.40;;;;;;5010216;28;20103;-64
2022/08/20 00:57:02;;;;;;;4.90;1.63;;;26.20;58.40;;;;;;5026157;28;20080;-63
2022/08/20 00:59:31;;;;;;;2.53;1.20;;;26.20;58.40;;;;;;5021872;28;20112;-63
2022/08/20 01:02:00;;;;;;;2.15;1.30;;;26.20;58.40;;;;;;5026156;28;20115;-63
2022/08/20 01:04:32;;;;;;;4.28;1.85;;;26.20;58.40;;;;;;5027760;28;20115;-64
2022/08/20 01:07:00;;;;;;;3.25;1.45;;;26.20;58.40;;;;;;5027026;28;20045;-64
2022/08/20 01:09:28;;;;;;;4.28;1.30;;;26.20;58.30;;;;;;5026484;28;20053;-64
2022/08/20 01:12:16;;;;;;;6.10;2.00;;;26.20;58.40;;;;;;5027325;28;20140;-64
2022/08/20 01:14:45;;;;;;;6.50;1.92;;;26.20;58.30;;;;;;5026933;28;20053;-63
2022/08/20 01:17:17;;;;;;;3.40;1.33;;;26.20;58.40;;;;;;5025813;28;20049;-64
2022/08/20 01:19:57;;;;;;;2.60;1.38;;;26.20;58.30;;;;;;5027212;28;20491;-64
2022/08/20 01:25:37;;;;;;;3.38;1.52;;;26.20;58.40;;;;;;5027160;28;20179;-63
2022/08/20 01:28:05;;;;;;;1.95;1.10;;;26.20;58.40;;;;;;5027355;28;20494;-64
2022/08/20 01:30:33;;;;;;;1.55;1.00;;;26.20;58.40;;;;;;5021070;28;20548;-63
2022/08/20 01:33:01;;;;;;;12.38;1.48;;;26.20;58.40;;;;;;5025602;28;20049;-63
2022/08/20 01:35:28;;;;;;;5.20;1.30;;;26.20;58.40;;;;;;5025615;28;20045;-64
2022/08/20 01:37:56;;;;;;;3.72;1.38;;;26.20;58.40;;;;;;5025336;28;20091;-64
2022/08/20 01:40:52;;;;;;;5.40;1.40;;;26.20;58.40;;;;;;5043810;28;20045;-64
2022/08/20 01:43:20;;;;;;;2.83;1.90;;;26.20;58.40;;;;;;5046754;28;20040;-64
2022/08/20 01:45:50;;;;;;;2.75;0.98;;;26.20;58.40;;;;;;5046556;28;20228;-63
2022/08/20 01:48:20;;;;;;;1.77;1.33;;;26.10;58.30;;;;;;5046723;28;20068;-64
2022/08/20 01:51:03;;;;;;;4.43;1.00;;;26.10;58.30;;;;;;5044691;28;20055;-63
2022/08/20 01:53:34;;;;;;;2.53;1.00;;;26.20;58.40;;;;;;5047078;28;20071;-63
2022/08/20 01:56:04;;;;;;;4.10;1.60;;;26.20;58.40;;;;;;5046021;28;20045;-63
2022/08/20 01:58:33;;;;;;;;;;;26.10;58.30;;;;;;5047110;28;20127;-63
2022/08/20 02:01:00;;;;;;;2.75;1.15;;;26.10;58.30;;;;;;5043587;28;20361;-63
2022/08/20 02:03:28;;;;;;;4.25;1.75;;;26.10;58.30;;;;;;5043312;28;20049;-64
2022/08/20 02:06:02;;;;;;;2.65;1.10;;;26.10;58.30;;;;;;5045935;28;20057;-63
2022/08/20 02:08:32;;;;;;;5.15;1.48;;;26.10;58.30;;;;;;5045909;28;20041;-64
2022/08/20 02:10:59;;;;;;;4.43;0.90;;;26.10;58.30;;;;;;5045983;28;20118;-64
2022/08/20 02:13:26;;;;;;;3.60;1.02;;;26.10;58.30;;;;;;5046291;28;20098;-64
2022/08/20 02:15:53;;;;;;;2.00;1.58;;;26.10;58.30;;;;;;5045727;28;20128;-64
2022/08/20 02:18:21;;;;;;;4.22;1.70;;;26.10;58.30;;;;;;5046510;28;20045;-65
2022/08/20 02:20:50;;;;;;;4.32;1.33;;;26.10;58.30;;;;;;5045336;28;20045;-63
2022/08/20 02:23:18;;;;;;;2.47;0.98;;;26.10;58.30;;;;;;5044435;28;20053;-64
2022/08/20 02:25:47;;;;;;;4.15;1.27;;;26.10;58.30;;;;;;5046044;28;20080;-64
2022/08/20 02:28:18;;;;;;;3.28;1.35;;;26.10;58.30;;;;;;5045952;28;20536;-64
2022/08/20 02:30:51;;;;;;;3.05;1.00;;;26.20;58.30;;;;;;5045939;28;20049;-64
2022/08/20 02:33:20;;;;;;;2.15;1.17;;;26.10;58.20;;;;;;5039710;28;20365;-64
2022/08/20 02:35:51;;;;;;;5.35;1.35;;;26.10;58.20;;;;;;5045854;28;20045;-63
2022/08/20 02:38:19;;;;;;;3.70;1.90;;;26.10;58.20;;;;;;5045825;28;20045;-63
2022/08/20 02:40:47;;;;;;;6.22;1.50;;;26.10;58.20;;;;;;5045439;28;20570;-63
2022/08/20 02:43:17;;;;;;;1.73;1.33;;;26.10;58.20;;;;;;5045536;28;20049;-65
2022/08/20 02:45:45;;;;;;;6.10;0.93;;;26.10;58.20;;;;;;5045281;28;20367;-63
2022/08/20 02:48:19;;;;;;;2.63;1.25;;;26.10;58.20;;;;;;5045966;28;20056;-64
2022/08/20 02:50:55;;;;;;;4.65;1.85;;;26.10;58.20;;;;;;5045359;28;20044;-64
2022/08/20 02:53:25;;;;;;;2.47;0.93;;;26.10;58.20;;;;;;5044525;28;20529;-64
2022/08/20 02:55:52;;;;;;;5.15;1.90;;;26.10;58.20;;;;;;5045099;28;20074;-64
2022/08/20 02:58:19;;;;;;;2.25;0.90;;;26.10;58.20;;;;;;5028052;28;20145;-64
2022/08/20 03:00:47;;;;;;;1.55;1.20;;;26.10;58.20;;;;;;5043794;28;20048;-64
2022/08/20 03:03:19;;;;;;;2.88;1.02;;;26.10;58.20;;;;;;5045255;28;20053;-63
2022/08/20 03:05:46;;;;;;;4.15;1.80;;;26.10;58.20;;;;;;5040460;28;20320;-63
2022/08/20 03:08:13;;;;;;;2.47;0.95;;;26.10;58.20;;;;;;5045081;28;20052;-63
2022/08/20 03:10:43;;;;;;;1.55;1.05;;;26.10;58.20;;;;;;5045606;28;20049;-62
2022/08/20 03:13:14;;;;;;;3.60;1.05;;;26.10;58.20;;;;;;5044880;28;20083;-63
2022/08/20 03:15:46;;;;;;;1.52;1.00;;;26.10;58.30;;;;;;5045411;28;20056;-63
2022/08/20 03:18:16;;;;;;;1.65;0.90;;;26.10;58.20;;;;;;5045194;28;20056;-62
2022/08/20 03:20:43;;;;;;;4.25;1.33;;;26.10;58.30;;;;;;5043575;28;20061;-62
2022/08/20 03:23:13;;;;;;;1.50;0.82;;;26.10;58.20;;;;;;5049688;28;20044;-63
2022/08/20 03:25:40;;;;;;;1.85;1.00;;;26.10;58.30;;;;;;5051523;28;20493;-63
2022/08/20 03:28:09;;;;;;;1.63;0.90;;;26.10;58.30;;;;;;5051286;28;20459;-63
2022/08/20 03:30:36;;;;;;;2.03;1.00;;;26.10;58.30;;;;;;5051924;28;20052;-63
2022/08/20 03:33:03;;;;;;;3.60;0.90;;;26.10;58.30;;;;;;5051174;28;20512;-63
2022/08/20 03:35:32;;;;;;;1.88;0.80;;;26.10;58.30;;;;;;5051858;28;20110;-62
2022/08/20 03:37:59;;;;;;;3.15;1.13;;;26.10;58.30;;;;;;5050575;28;20052;-62
2022/08/20 03:40:31;;;;;;;2.00;0.95;;;26.10;58.30;;;;;;5049434;28;20486;-62
2022/08/20 03:42:58;;;;;;;1.27;1.10;;;26.10;58.30;;;;;;5048463;28;20064;-63
2022/08/20 03:45:28;;;;;;;0.80;0.80;;;26.10;58.20;;;;;;5051113;28;20072;-63
2022/08/20 03:47:56;;;;;;;2.88;1.33;;;26.10;58.30;;;;;;5051409;28;20103;-62
2022/08/20 03:50:27;;;;;;;1.33;1.02;;;26.10;58.30;;;;;;5051243;28;20056;-62
2022/08/20 03:52:55;;;;;;;2.03;0.85;;;26.10;58.30;;;;;;5051497;28;20044;-63
2022/08/20 03:55:24;;;;;;;3.25;0.90;;;26.10;58.20;;;;;;5051633;28;20379;-63
2022/08/20 03:57:54;;;;;;;3.67;1.52;;;26.10;58.20;;;;;;5051055;28;20056;-63
2022/08/20 04:00:29;;;;;;;3.90;1.33;;;26.10;58.20;;;;;;5052173;28;20078;-63
2022/08/20 04:02:56;;;;;;;3.08;0.90;;;26.10;58.20;;;;;;5033963;28;20707;-62
2022/08/20 04:05:24;;;;;;;1.77;0.95;;;26.10;58.20;;;;;;5051453;28;20061;-63
2022/08/20 04:07:56;;;;;;;3.15;1.08;;;26.10;58.20;;;;;;5051464;28;20055;-63
2022/08/20 04:10:31;;;;;;;5.35;1.38;;;26.10;58.20;;;;;;5051177;28;20045;-62
2022/08/20 04:12:58;;;;;;;6.78;1.30;;;26.10;58.20;;;;;;5046654;28;20057;-62
2022/08/20 04:15:27;;;;;;;3.78;1.40;;;26.10;58.10;;;;;;5051101;28;20140;-62
2022/08/20 04:17:54;;;;;;;1.63;1.00;;;26.10;58.20;;;;;;5050850;28;20052;-62
2022/08/20 04:20:24;;;;;;;4.18;0.80;;;26.10;58.10;;;;;;5050455;28;20114;-62
2022/08/20 04:22:53;;;;;;;;;;;26.10;58.20;;;;;;5051484;28;20055;-62
2022/08/20 04:25:27;;;;;;;2.33;0.93;;;26.10;58.60;;;;;;5051332;28;19924;-63
2022/08/20 04:27:57;;;;;;;2.90;0.90;;;26.10;58.10;;;;;;5050934;28;20060;-62
2022/08/20 04:30:25;;;;;;;3.33;0.88;;;26.10;58.10;;;;;;5033580;28;20143;-62
2022/08/20 04:32:53;;;;;;;7.47;1.58;;;26.10;58.10;;;;;;5051092;28;20106;-63
2022/08/20 04:35:23;;;;;;;3.65;0.80;;;26.10;58.10;;;;;;5046464;28;20510;-62
2022/08/20 04:38:02;;;;;;;5.28;1.42;;;26.10;58.20;;;;;;5047604;28;20037;-62
2022/08/20 04:43:18;;;;;;;2.78;1.00;;;26.10;58.10;;;;;;5046454;28;20048;-63
2022/08/20 04:45:46;;;;;;;2.13;1.17;;;26.20;58.10;;;;;;5044651;28;20041;-63
2022/08/20 04:48:13;;;;;;;2.17;1.10;;;26.20;58.10;;;;;;5048104;28;20056;-63
2022/08/20 04:50:43;;;;;;;4.53;1.45;;;26.10;58.00;;;;;;5047446;28;20444;-62
2022/08/20 04:53:13;;;;;;;2.90;1.23;;;26.10;58.10;;;;;;5047485;28;20334;-62
2022/08/20 04:55:42;;;;;;;1.30;0.93;;;26.10;58.10;;;;;;5046390;28;20309;-62
2022/08/20 04:58:17;;;;;;;2.17;0.80;;;26.20;58.20;;;;;;5047556;28;20045;-62
2022/08/20 05:00:47;;;;;;;2.30;0.68;;;26.20;58.70;;;;;;5047311;28;20525;-62
2022/08/20 05:03:15;;;;;;;2.75;0.98;;;26.10;58.10;;;;;;5047617;28;20045;-63
2022/08/20 05:05:44;;;;;;;2.33;1.10;;;26.10;58.10;;;;;;5047901;28;20057;-63
2022/08/20 05:08:12;;;;;;;2.97;1.20;;;26.20;58.10;;;;;;5029351;28;20056;-63
2022/08/20 05:10:46;;;;;;;4.03;1.05;;;26.10;58.20;;;;;;5047036;28;20049;-63
2022/08/20 05:13:13;;;;;;;4.13;1.13;;;26.10;58.30;;;;;;5046094;28;20059;-63
2022/08/20 05:15:41;;;;;;;3.25;1.33;;;26.00;58.50;;;;;;5042300;28;20055;-62
2022/08/20 05:18:08;;;;;;;3.85;1.40;;;25.90;58.70;;;;;;5045848;28;20053;-63
2022/08/20 05:20:39;;;;;;;2.55;0.82;;;25.70;58.10;;;;;;5046178;28;20045;-62
2022/08/20 05:23:09;;;;;;;2.33;1.00;;;25.50;57.20;;;;;;5046108;28;20365;-63
2022/08/20 05:25:37;;;;;;;3.83;1.02;;;25.30;56.20;;;;;;5046943;28;20049;-62
2022/08/20 05:28:08;;;;;;;4.15;1.65;;;25.00;55.60;;;;;;5046637;28;20045;-62
2022/08/20 05:30:41;;;;;;;7.03;1.10;;;24.70;57.70;;;;;;5047125;28;20131;-62
2022/08/20 05:33:10;;;;;;;2.42;1.08;;;24.50;57.70;;;;;;5030234;28;20049;-63
2022/08/20 05:35:38;;;;;;;5.00;1.23;;;24.20;56.20;;;;;;5046877;28;20052;-62
2022/08/20 05:38:09;;;;;;;2.95;0.90;;;24.00;55.80;;;;;;5047205;28;20057;-63
2022/08/20 05:40:39;;;;;;;1.92;1.10;;;23.80;55.20;;;;;;5046846;28;20061;-63
2022/08/20 05:43:07;;;;;;;6.35;1.42;;;23.50;54.60;;;;;;5045619;28;20564;-63
2022/08/20 05:45:36;;;;;;;1.90;1.20;;;23.20;54.30;;;;;;5046257;28;20497;-63
2022/08/20 05:48:15;;;;;;;7.83;1.53;;;22.90;54.00;;;;;;5040774;28;20083;-63
2022/08/20 05:50:45;;;;;;;3.08;1.05;;;22.50;53.80;;;;;;5042935;28;20094;-62
2022/08/20 05:53:12;;;;;;;2.42;1.40;;;22.20;54.00;;;;;;5035692;28;20118;-63
2022/08/20 05:55:40;;;;;;;3.22;1.20;;;22.00;54.30;;;;;;5026733;28;20053;-62
2022/08/20 05:58:14;;;;;;;2.72;1.50;;;21.70;54.40;;;;;;5025958;28;20452;-62
2022/08/20 06:00:41;;;;;;;4.30;1.48;;;21.50;55.20;;;;;;5026343;28;20581;-63
2022/08/20 06:05:56;;;;;;;5.45;1.80;;;21.10;56.70;;;;;;5026249;28;20498;-65
2022/08/20 06:08:23;;;;;;;4.47;1.58;;;20.90;56.70;;;;;;5026445;28;20506;-63
2022/08/20 06:10:50;;;;;;;5.07;2.22;;;20.70;56.60;;;;;;5026330;28;20444;-63
2022/08/20 06:13:18;;;;;;;4.38;1.38;;;20.60;57.00;;;;;;5025897;28;20095;-63
2022/08/20 06:15:45;;;;;;;5.90;1.15;;;20.50;57.70;;;;;;5025861;28;20048;-63
2022/08/20 06:18:12;;;;;;;3.00;1.00;;;20.40;56.90;;;;;;5024165;28;20057;-63
2022/08/20 06:20:55;;;;;;;4.97;1.25;;;20.30;57.10;;;;;;5026058;28;20053;-63
2022/08/20 06:23:24;;;;;;;5.45;2.08;;;20.10;57.60;;;;;;5025946;28;20046;-63
2022/08/20 06:25:52;;;;;;;6.30;1.70;;;20.00;57.40;;;;;;5025782;28;20103;-63
2022/08/20 06:28:19;;;;;;;5.10;1.65;;;20.00;57.60;;;;;;5025732;28;20068;-63
2022/08/20 06:30:46;;;;;;;5.07;1.88;;;19.80;58.30;;;;;;5025695;28;20081;-63
2022/08/20 06:33:13;;;;;;;4.95;1.30;;;19.70;57.60;;;;;;5025803;28;20053;-63
2022/08/20 06:35:43;;;;;;;8.73;1.63;;;19.60;56.50;;;;;;5025891;28;20041;-63
2022/08/20 06:38:11;;;;;;;3.43;1.87;;;19.40;58.30;;;;;;5024476;28;20357;-63
2022/08/20 06:40:38;;;;;;;7.05;1.70;;;19.30;59.70;;;;;;5025573;28;20107;-63
2022/08/20 06:43:07;;;;;;;4.72;1.60;;;19.30;59.40;;;;;;5025946;28;20110;-63
2022/08/20 06:45:37;;;;;;;3.08;1.50;;;19.20;58.70;;;;;;5025675;28;20045;-63
2022/08/20 06:48:11;;;;;;;7.90;2.63;;;19.20;59.60;;;;;;5025193;28;20052;-64
2022/08/20 06:50:44;;;;;;;7.00;1.88;;;19.10;59.70;;;;;;5020905;28;20045;-63
2022/08/20 06:53:17;;;;;;;7.80;1.55;;;19.10;59.30;;;;;;5008769;28;20144;-63
2022/08/20 06:55:50;;;;;;;5.68;1.73;;;19.00;59.80;;;;;;5025677;28;20045;-63
2022/08/20 06:58:19;;;;;;;5.82;1.88;;;19.00;60.20;;;;;;5023669;28;20041;-63
2022/08/20 07:01:06;;;;;;;3.70;1.85;;;19.00;59.20;;;;;;5025254;28;20051;-63
2022/08/20 07:03:37;;;;;;;3.65;1.17;;;19.00;60.40;;;;;;5024921;28;20045;-63
2022/08/20 07:06:05;;;;;;;4.03;1.38;;;19.00;60.30;;;;;;5023941;28;20049;-63
2022/08/20 07:08:34;;;;;;;4.05;1.70;;;18.90;59.30;;;;;;5025727;28;20449;-63
2022/08/20 07:11:01;;;;;;;4.70;1.70;;;18.80;59.20;;;;;;5024148;28;20136;-63
2022/08/20 07:13:29;;;;;;;3.78;1.70;;;18.80;60.30;;;;;;5024015;28;20072;-66
2022/08/20 07:15:56;;;;;;;3.35;1.50;;;18.80;60.20;;;;;;5024742;28;20485;-63
2022/08/20 07:18:24;;;;;;;2.97;1.20;;;18.70;59.00;;;;;;5025567;28;20099;-63
2022/08/20 07:20:55;;;;;;;4.38;1.25;;;18.70;60.50;;;;;;5023689;28;20426;-63
2022/08/20 07:23:24;;;;;;;3.97;1.67;;;18.70;60.00;;;;;;5022345;28;20053;-63
2022/08/20 07:25:52;;;;;;;2.92;1.15;;;18.70;59.30;;;;;;5025504;28;20458;-63
2022/08/20 07:28:22;;;;;;;3.58;1.70;;;18.70;60.10;;;;;;5025091;28;20092;-63
2022/08/20 07:33:42;;;;;;;3.70;1.83;;;18.80;60.40;;;;;;5024927;28;20057;-63
2022/08/20 07:36:11;;;;;;;3.85;2.05;;;18.70;60.00;;;;;;5025068;28;20053;-63
2022/08/20 07:38:39;;;;;;;7.70;2.10;;;18.70;60.60;;;;;;5023962;28;20438;-63
2022/08/20 07:41:13;;;;;;;7.90;1.65;;;18.70;60.40;;;;;;5023973;28;20057;-63
2022/08/20 07:43:42;;;;;;;8.65;1.98;;;18.70;59.40;;;;;;5024122;28;20320;-63
2022/08/20 07:46:09;;;;;;;3.58;1.85;;;18.60;59.50;;;;;;5025377;28;20115;-63
2022/08/20 07:48:39;;;;;;;4.38;2.00;;;18.60;60.60;;;;;;5025328;28;20449;-63
2022/08/20 07:51:09;;;;;;;6.65;1.70;;;18.50;60.20;;;;;;5023678;28;20045;-63
2022/08/20 07:53:39;;;;;;;8.20;1.90;;;18.50;61.10;;;;;;5019628;28;20060;-63
2022/08/20 07:56:10;;;;;;;6.43;1.60;;;18.60;60.60;;;;;;5023981;28;20054;-63
2022/08/20 07:58:42;;;;;;;5.78;1.70;;;18.60;60.60;;;;;;5023459;28;20046;-66
2022/08/20 08:01:10;;;;;;;4.90;1.75;;;18.60;60.70;;;;;;5024778;28;20064;-66
2022/08/20 08:03:38;;;;;;;10.13;2.00;;;18.70;60.40;;;;;;5024877;28;20054;-66
2022/08/20 08:06:21;;;;;;;5.45;1.98;;;18.70;60.30;;;;;;5023753;28;20271;-66
2022/08/20 08:09:06;;;;;;;4.82;1.70;;;18.70;59.90;;;;;;5026795;28;20046;-66
2022/08/20 08:11:37;;;;;;;3.78;1.77;;;18.70;59.50;;;;;;5028616;28;20092;-66
2022/08/20 08:14:08;;;;;;;5.40;2.13;;;18.60;60.00;;;;;;5028560;28;20049;-65
2022/08/20 08:16:36;;;;;;;5.00;1.45;;;18.70;60.20;;;;;;5028359;28;20045;-65
2022/08/20 08:19:07;;;;;;;5.00;1.88;;;18.70;60.80;;;;;;5028585;28;20103;-65
2022/08/20 08:21:34;;;;;;;;;;;18.70;60.70;;;;;;5027536;28;20053;-65
2022/08/20 08:24:02;;;;;;;4.93;1.83;;;18.70;59.90;;;;;;5027155;28;19920;-66
2022/08/20 08:26:29;;;;;;;6.13;1.90;;;18.70;61.30;;;;;;5024734;28;20068;-66
2022/08/20 08:28:59;;;;;;;3.70;1.67;;;18.70;61.10;;;;;;5028031;28;20045;-66
2022/08/20 08:31:27;;;;;;;2.40;1.70;;;18.80;60.70;;;;;;5028136;28;20045;-66
2022/08/20 08:33:54;;;;;;;5.22;2.10;;;18.80;61.40;;;;;;5027905;28;20052;-66
2022/08/20 08:36:22;;;;;;;3.15;1.42;;;18.80;61.30;;;;;;5027999;28;20087;-67
2022/08/20 08:38:49;;;;;;;5.03;1.67;;;18.80;61.60;;;;;;5027131;28;20050;-65
2022/08/20 08:41:31;;;;;;;4.88;2.20;;;18.90;61.00;;;;;;5026405;28;20053;-63
2022/08/20 08:44:07;;;;;;;5.07;2.83;;;18.90;60.90;;;;;;5026422;28;20085;-63
2022/08/20 08:46:43;;;;;;;6.70;1.80;;;19.00;61.20;;;;;;5026337;28;20534;-63
2022/08/20 08:49:16;;;;;;;5.80;1.92;;;19.00;60.80;;;;;;5026671;28;20080;-63
2022/08/20 08:51:56;;;;;;;4.53;2.22;;;19.00;60.90;;;;;;5028034;28;20107;-63
2022/08/20 08:54:29;;;;;;;3.25;1.88;;;19.00;61.70;;;;;;5027780;28;20060;-63
2022/08/20 08:56:58;;;;;;;5.10;1.42;;;19.10;62.10;;;;;;5022067;28;20317;-63
2022/08/20 08:59:29;;;;;;;9.25;2.63;;;19.10;61.10;;;;;;5027550;28;20342;-65
2022/08/20 09:02:22;;;;;;;3.05;1.85;;;19.20;61.10;;;;;;5026889;28;20057;-63
2022/08/20 09:04:50;;;;;;;4.35;1.90;;;19.20;60.70;;;;;;5027331;28;20128;-63
2022/08/20 09:07:17;;;;;;;3.05;1.88;;;19.30;61.20;;;;;;5027460;28;20076;-63
2022/08/20 09:09:46;;;;;;;5.60;2.42;;;19.30;60.40;;;;;;5026413;28;20570;-63
2022/08/20 09:12:19;;;;;;;9.45;2.67;;;19.30;60.60;;;;;;5026197;28;20073;-63
2022/08/20 09:14:48;;;;;;;3.67;2.33;;;19.30;61.00;;;;;;5027393;28;20053;-63
2022/08/20 09:17:18;;;;;;;6.85;2.05;;;19.40;60.30;;;;;;5027017;28;20276;-63
2022/08/20 09:19:46;;;;;;;5.18;1.98;;;19.40;60.40;;;;;;5027084;28;20077;-63
2022/08/20 09:22:17;;;;;;;2.53;2.25;;;19.40;60.40;;;;;;5027378;28;20049;-63
2022/08/20 09:24:44;;;;;;;5.60;1.77;;;19.40;60.60;;;;;;5026381;28;20231;-63
2022/08/20 09:27:12;;;;;;;4.95;2.22;;;19.40;60.50;;;;;;5026879;28;20600;-63
2022/08/20 09:29:39;;;;;;;3.83;2.05;;;19.40;60.50;;;;;;5021903;28;20336;-63
2022/08/20 09:32:16;;;;;;;5.22;1.70;;;19.40;61.10;;;;;;5026659;28;20561;-63
2022/08/20 09:34:50;;;;;;;3.10;1.70;;;19.50;61.00;;;;;;5025263;28;20056;-63
2022/08/20 09:37:18;;;;;;;9.13;1.40;;;19.50;60.80;;;;;;5027162;28;20052;-63
2022/08/20 09:39:46;;;;;;;5.45;1.77;;;19.50;60.90;;;;;;5025823;28;20053;-63
2022/08/20 09:42:20;;;;;;;2.63;1.92;;;19.50;60.70;;;;;;5027065;28;20460;-63
2022/08/20 09:44:47;;;;;;;7.18;2.45;;;19.60;61.30;;;;;;5027235;28;20049;-63
2022/08/20 09:47:16;;;;;;;5.47;2.17;;;19.60;60.90;;;;;;5026723;28;20046;-63
2022/08/20 09:49:44;;;;;;;4.13;2.25;;;19.60;60.80;;;;;;5026916;28;20154;-63
2022/08/20 09:52:25;;;;;;;6.85;2.75;;;19.60;60.80;;;;;;5026890;28;20143;-63
2022/08/20 09:54:59;;;;;;;7.63;2.80;;;19.60;60.90;;;;;;5025346;28;20053;-63
2022/08/20 09:57:30;;;;;;;9.15;2.42;;;19.60;60.10;;;;;;5026627;28;20087;-63
2022/08/20 10:00:05;;;;;;;8.43;2.10;;;19.70;60.40;;;;;;5024308;28;20486;-63
2022/08/20 10:02:33;;;;;;;5.50;2.78;;;19.70;60.70;;;;;;5023597;28;20053;-63
2022/08/20 10:05:00;;;;;;;5.32;1.70;;;19.70;60.90;;;;;;5026328;28;20282;-63
2022/08/20 10:07:27;;;;;;;4.38;2.13;;;19.70;60.30;;;;;;5025229;28;20123;-63
2022/08/20 10:09:54;;;;;;;4.70;2.33;;;19.70;60.60;;;;;;5026597;28;20094;-63
2022/08/20 10:12:21;;;;;;;8.73;2.20;;;19.70;59.90;;;;;;5024996;28;20552;-63
2022/08/20 10:14:49;;;;;;;7.82;2.63;;;19.70;60.20;;;;;;5026091;28;20514;-63
2022/08/20 10:17:16;;;;;;;5.32;2.13;;;19.70;59.80;;;;;;5026295;28;20041;-63
2022/08/20 10:19:43;;;;;;;2.92;2.17;;;19.70;60.00;;;;;;5026394;28;20050;-63
2022/08/20 10:22:10;;;;;;;3.55;1.80;;;19.70;60.20;;;;;;5025610;28;20092;-63
2022/08/20 10:24:38;;;;;;;7.32;2.80;;;19.70;59.70;;;;;;5025889;28;20106;-63
2022/08/20 10:27:06;;;;;;;5.90;2.38;;;19.70;60.00;;;;;;5024951;28;20077;-63
2022/08/20 10:29:33;;;;;;;5.45;2.13;;;19.70;60.00;;;;;;5025437;28;20045;-63
2022/08/20 10:32:13;;;;;;;5.40;2.20;;;19.70;60.20;;;;;;5019658;28;20107;-63
2022/08/20 10:34:42;;;;;;;5.82;2.40;;;19.80;59.50;;;;;;5024723;28;20053;-63
2022/08/20 10:37:15;;;;;;;7.45;2.25;;;19.70;59.90;;;;;;5024951;28;20131;-63
2022/08/20 10:39:43;;;;;;;2.90;1.83;;;19.80;59.60;;;;;;5025349;28;20538;-63
2022/08/20 10:42:11;;;;;;;3.00;2.20;;;19.80;59.90;;;;;;5025491;28;20099;-63
2022/08/20 10:44:39;;;;;;;3.78;2.10;;;19.80;59.70;;;;;;5025769;28;20049;-63
2022/08/20 10:47:20;;;;;;;3.25;1.60;;;19.80;59.80;;;;;;5025851;28;20053;-63
2022/08/20 10:49:49;;;;;;;8.60;3.22;;;19.80;60.10;;;;;;5025851;28;20053;-63
2022/08/20 10:52:16;;;;;;;2.78;1.77;;;19.80;59.90;;;;;;5024312;28;20103;-63
2022/08/20 10:54:44;;;;;;;6.88;2.33;;;19.80;60.40;;;;;;5025263;28;20060;-64
2022/08/20 10:57:17;;;;;;;5.38;1.83;;;19.90;60.00;;;;;;5024575;28;20056;-63
2022/08/20 10:59:46;;;;;;;7.35;2.10;;;19.90;60.50;;;;;;5025682;28;20082;-64
2022/08/20 11:02:14;;;;;;;4.25;2.10;;;19.90;60.20;;;;;;5025229;28;20096;-64
2022/08/20 11:04:42;;;;;;;10.48;2.95;;;19.90;60.70;;;;;;5020958;28;20107;-65
2022/08/20 11:07:22;;;;;;;6.40;2.33;;;19.90;60.30;;;;;;5025327;28;20569;-64
2022/08/20 11:10:11;;;;;;;2.47;2.03;;;20.00;59.90;;;;;;5024965;28;20103;-64
2022/08/20 11:12:40;;;;;;;5.15;1.77;;;20.00;59.90;;;;;;5024906;28;20619;-64
2022/08/20 11:15:11;;;;;;;7.82;2.25;;;20.00;60.00;;;;;;5024048;28;20064;-64
2022/08/20 11:17:47;;;;;;;6.32;2.50;;;20.00;60.40;;;;;;5024961;28;20335;-64
2022/08/20 11:20:17;;;;;;;4.53;2.28;;;20.10;60.00;;;;;;5025342;28;20049;-64
2022/08/20 11:22:44;;;;;;;;;;;20.00;59.80;;;;;;5024240;28;20088;-64
2022/08/20 11:25:12;;;;;;;5.38;2.30;;;20.00;60.10;;;;;;5024179;28;20259;-64
2022/08/20 11:27:44;;;;;;;3.97;2.15;;;20.10;60.30;;;;;;5025553;28;20240;-64
2022/08/20 11:30:16;;;;;;;3.35;2.40;;;20.10;60.60;;;;;;5024873;28;20542;-64
2022/08/20 11:32:43;;;;;;;8.52;2.10;;;20.10;60.20;;;;;;5023766;28;20049;-64
2022/08/20 11:35:10;;;;;;;9.98;3.33;;;20.10;59.90;;;;;;5020757;28;20414;-64
2022/08/20 11:37:58;;;;;;;2.45;1.95;;;20.10;59.80;;;;;;5025031;28;20140;-64
2022/08/20 11:40:28;;;;;;;4.47;2.40;;;20.10;60.00;;;;;;5025038;28;20107;-64
2022/08/20 11:42:56;;;;;;;;;;;20.20;60.40;;;;;;5024591;28;20296;-65
2022/08/20 11:45:41;;;;;;;5.07;2.28;;;20.10;59.80;;;;;;5029134;28;20497;-64
2022/08/20 11:48:08;;;;;;;4.45;2.08;;;20.20;60.00;;;;;;5027725;28;20096;-64
2022/08/20 11:50:35;;;;;;;6.82;2.20;;;20.20;60.10;;;;;;5027841;28;20041;-64
2022/08/20 11:53:02;;;;;;;6.45;1.88;;;20.30;60.40;;;;;;5028519;28;20409;-64
2022/08/20 11:55:30;;;;;;;5.18;2.63;;;20.30;60.40;;;;;;5027615;28;20513;-64
2022/08/20 11:57:58;;;;;;;4.25;2.65;;;20.40;60.40;;;;;;5028607;28;20046;-64
2022/08/20 12:00:28;;;;;;;4.72;2.05;;;20.40;60.20;;;;;;5028562;28;20053;-64
2022/08/20 12:03:00;;;;;;;5.18;2.05;;;20.50;60.30;;;;;;5028589;28;20429;-64
2022/08/20 12:05:28;;;;;;;3.03;2.45;;;20.50;60.30;;;;;;5028406;28;20090;-64
2022/08/20 12:07:59;;;;;;;2.13;1.92;;;20.50;59.80;;;;;;5024120;28;20046;-65
2022/08/20 12:10:27;;;;;;;6.25;2.17;;;20.50;59.80;;;;;;5028858;28;20077;-64
2022/08/20 12:12:55;;;;;;;6.05;2.42;;;20.50;59.70;;;;;;5011305;28;20092;-64
2022/08/20 12:15:24;;;;;;;6.97;2.80;;;20.60;59.90;;;;;;5028696;28;20140;-64
2022/08/20 12:17:51;;;;;;;4.28;2.42;;;20.60;59.90;;;;;;5026537;28;20049;-64
2022/08/20 12:20:19;;;;;;;7.28;2.70;;;20.60;59.50;;;;;;5028253;28;20049;-64
2022/08/20 12:22:46;;;;;;;7.10;2.35;;;20.60;59.70;;;;;;5028424;28;20111;-64
2022/08/20 12:25:14;;;;;;;4.22;1.95;;;20.60;59.60;;;;;;5028032;28;20053;-64
2022/08/20 12:27:41;;;;;;;4.00;2.40;;;20.60;59.80;;;;;;5027254;28;20062;-64
2022/08/20 12:30:13;;;;;;;4.30;2.10;;;20.60;59.70;;;;;;5028100;28;20057;-64
2022/08/20 12:32:41;;;;;;;6.07;2.70;;;20.60;60.20;;;;;;5027129;28;20050;-64
2022/08/20 12:35:09;;;;;;;9.85;2.58;;;20.60;59.80;;;;;;5028115;28;20057;-64
2022/08/20 12:37:38;;;;;;;9.85;3.08;;;20.60;59.90;;;;;;5028373;28;20403;-64
2022/08/20 12:40:10;;;;;;;6.88;2.58;;;20.60;60.00;;;;;;5023738;28;20060;-64
2022/08/20 12:42:37;;;;;;;5.63;2.00;;;20.60;60.00;;;;;;5028205;28;20128;-64
2022/08/20 12:45:06;;;;;;;6.13;2.30;;;20.60;59.60;;;;;;5028416;28;20139;-65
2022/08/20 12:47:36;;;;;;;1.83;1.73;;;20.60;59.90;;;;;;5027261;28;20053;-64
2022/08/20 12:50:07;;;;;;;4.22;2.45;;;20.60;60.00;;;;;;5027633;28;20107;-65
2022/08/20 12:52:35;;;;;;;4.47;1.90;;;20.60;60.30;;;;;;5027618;28;20049;-64
2022/08/20 12:55:04;;;;;;;4.88;2.50;;;20.60;60.40;;;;;;5026726;28;20058;-64
2022/08/20 12:57:37;;;;;;;3.72;2.22;;;20.60;60.00;;;;;;5027746;28;20052;-64
2022/08/20 13:00:10;;;;;;;8.27;1.98;;;20.70;60.00;;;;;;5027251;28;20091;-66
2022/08/20 13:02:39;;;;;;;4.55;2.58;;;20.70;60.30;;;;;;5028058;28;20498;-64
2022/08/20 13:05:09;;;;;;;5.57;2.60;;;20.70;60.10;;;;;;5027814;28;20337;-65
2022/08/20 13:07:37;;;;;;;4.63;2.33;;;20.70;60.10;;;;;;5027734;28;20578;-64
2022/08/20 13:10:07;;;;;;;4.88;2.45;;;20.70;59.90;;;;;;5023558;28;20107;-64
2022/08/20 13:12:35;;;;;;;3.53;2.53;;;20.70;60.20;;;;;;5027333;28;20037;-64
2022/08/20 13:15:03;;;;;;;6.00;2.50;;;20.70;60.30;;;;;;5026323;28;20366;-64